Catàleg de serveis del Meteocat

Dades de l'estació automàtica Portbou

?
?
Resum diari 22:30 TU
Dades diàries de l'estació meteorològica
Temperatura mitjana 10.0 °C
Temperatura màxima 13.7 °C 12:38 TU
Temperatura mínima 7.4 °C 5:05 TU
Humitat relativa mitjana 86%
Precipitació acumulada 0.0 mm
Ratxa màxima del vent (10 m) 48.2 km/h - 342º 22:14 TU
Pressió atmosfèrica mitjana 1000.9 hPa
Irradiació solar global 6.0 MJ/m2

El tram horari està expressat en Temps Universal (TU). Cal sumar una hora en horari d'hivern i dues en horari d'estiu per passar a l'hora oficial.

Portbou

Metadades estació meteorol´gica
Municipi Portbou
Comarca Alt Empordà
Altitud 196 m
Data alta 25.03.1998
Estat actual Operativa
Dades de període
Període
TU
TM
°C
TX
°C
TN
°C
HRM
%
PPT
mm
VVM (10 m)
km/h
DVM (10 m)
graus
VVX (10 m)
km/h
PM
hPa
RS
W/m2
00:00 - 00:30 7.5 7.5 7.4 90 0.0 19.8 322 30.2 1000.7 0
00:30 - 01:00 7.7 7.9 7.5 91 0.0 16.6 309 24.1 1000.5 0
01:00 - 01:30 8.1 8.4 7.9 88 0.0 14.8 306 21.2 1000.5 0
01:30 - 02:00 8.4 8.5 8.4 86 0.0 7.6 309 14.0 1000.5 0
02:00 - 02:30 8.5 8.6 8.4 84 0.0 3.6 313 8.6 1000.5 0
02:30 - 03:00 8.5 8.6 8.4 84 0.0 6.1 347 13.7 1000.3 0
03:00 - 03:30 8.1 8.4 7.8 89 0.0 12.6 352 17.6 1000.2 0
03:30 - 04:00 7.7 7.8 7.7 91 0.0 13.7 339 20.9 1000.1 0
04:00 - 04:30 7.8 7.9 7.7 92 0.0 21.2 356 31.7 1000.1 0
04:30 - 05:00 7.6 7.7 7.6 93 0.0 23.8 342 32.4 1000.1 0
05:00 - 05:30 7.5 7.7 7.4 93 0.0 18.7 327 31.0 1000.3 0
05:30 - 06:00 7.8 8.0 7.7 91 0.0 13.3 329 22.3 1000.5 0
06:00 - 06:30 8.1 8.2 7.9 88 0.0 10.4 328 18.7 1000.5 0
06:30 - 07:00 8.3 8.6 8.0 86 0.0 7.9 333 11.5 1000.7 3
07:00 - 07:30 8.7 8.9 8.6 84 0.0 4.7 304 9.4 1001.0 26
07:30 - 08:00 9.0 9.1 8.9 85 0.0 5.4 193 7.6 1001.2 49
08:00 - 08:30 9.4 9.9 9.1 86 0.0 4.3 205 7.9 1001.3 88
08:30 - 09:00 10.0 10.2 9.8 85 0.0 3.2 188 9.7 1001.4 101
09:00 - 09:30 10.1 10.4 9.8 86 0.0 7.9 171 11.9 1001.3 143
09:30 - 10:00 10.9 11.4 10.2 84 0.0 4.3 92 10.4 1001.5 202
10:00 - 10:30 10.0 10.4 9.8 86 0.0 8.6 14 13.7 1001.7 170
10:30 - 11:00 10.5 10.8 10.0 85 0.0 9.0 15 15.5 1001.6 365
11:00 - 11:30 11.0 11.9 9.8 85 0.0 6.8 114 11.9 1001.4 282
11:30 - 12:00 11.6 12.2 11.0 83 0.0 8.3 136 13.3 1001.0 323
12:00 - 12:30 12.1 12.5 11.6 83 0.0 7.2 127 13.0 1000.7 384
12:30 - 13:00 12.6 13.7 12.0 82 0.0 5.0 110 10.4 1000.5 452
13:00 - 13:30 13.0 13.5 12.4 81 0.0 6.5 137 10.8 1000.3 379
13:30 - 14:00 12.2 12.8 12.0 84 0.0 9.0 158 12.2 1000.2 169
14:00 - 14:30 12.4 12.8 12.2 82 0.0 14.0 171 20.9 1000.1 141
14:30 - 15:00 12.5 12.6 12.4 81 0.0 17.3 165 22.7 999.9 54
15:00 - 15:30 12.3 12.4 12.3 82 0.0 15.1 162 23.4 1000.0 21
15:30 - 16:00 12.4 12.4 12.4 82 0.0 16.6 160 23.8 1000.2 15
16:00 - 16:30 12.3 12.4 12.3 83 0.0 15.1 189 24.5 1000.4 4
16:30 - 17:00 12.3 12.4 12.2 83 0.0 14.8 176 20.2 1000.4 0
17:00 - 17:30 12.0 12.2 11.8 84 0.0 13.0 165 20.2 1000.6 0
17:30 - 18:00 11.5 11.9 11.2 86 0.0 6.8 178 18.0 1000.8 0
18:00 - 18:30 10.5 10.9 10.2 88 0.0 5.4 298 13.7 1001.1 0
18:30 - 19:00 10.5 11.1 10.0 89 0.0 5.4 308 8.6 1001.4 0
19:00 - 19:30 10.2 11.4 9.3 89 0.0 5.8 16 10.8 1001.6 0
19:30 - 20:00 9.5 10.6 9.1 89 0.0 8.6 343 17.3 1001.7 0
20:00 - 20:30 10.4 10.6 10.0 89 0.0 4.3 141 9.4 1001.7 0
20:30 - 21:00 10.0 10.3 9.6 90 0.0 4.0 20 10.1 1002.1 0
21:00 - 21:30 9.4 9.7 9.1 86 0.0 20.9 357 34.6 1002.3 0
21:30 - 22:00 9.3 9.4 9.2 78 0.0 29.2 349 47.9 1002.5 0
22:00 - 22:30 9.4 9.4 9.4 76 0.0 29.5 351 48.2 1002.5 0
22:30 - 23:00 9.4 9.5 9.4 75 0.0 27.0 346 46.4 1003.0 0

Les dades en taronja només han passat un control de qualitat automàtic. Resta pendent la seva validació definitiva.